createdAt,value
2023-05-20T00:01:21.818Z,100023.09
2023-05-20T00:04:27.176Z,100017.28
2023-05-20T00:07:39.652Z,100010.97
2023-05-20T00:10:56.420Z,100006.91
2023-05-20T00:14:00.739Z,100009.78
2023-05-20T00:17:06.739Z,100002.44
2023-05-20T00:20:13.818Z,100006.38
2023-05-20T00:23:18.071Z,99994.91
2023-05-20T00:26:24.831Z,99996.81
2023-05-20T00:29:31.866Z,99995.81
2023-05-20T00:32:37.330Z,99996.16
2023-05-20T00:35:41.634Z,99997.38
2023-05-20T00:38:46.113Z,99995.59
2023-05-20T00:41:49.991Z,100001.97
2023-05-20T00:44:54.405Z,100001.88
2023-05-20T00:48:01.870Z,99999.38
2023-05-20T00:51:07.819Z,99999.38
2023-05-20T00:54:12.321Z,99994.81
2023-05-20T00:57:18.159Z,99995.78
2023-05-20T01:00:22.144Z,99995.78
2023-05-20T01:03:28.796Z,99999.78
2023-05-20T01:06:34.053Z,99996.63
2023-05-20T01:09:38.148Z,99998.34
2023-05-20T01:12:47.171Z,99980.72
2023-05-20T01:15:57.406Z,99983.41
2023-05-20T01:19:57.972Z,99985.50
2023-05-20T01:23:08.644Z,99991.56
2023-05-20T01:26:14.026Z,99988.69
2023-05-20T01:29:18.841Z,99988.34
2023-05-20T01:32:25.155Z,99985.22
2023-05-20T01:35:30.244Z,99980.94
2023-05-20T01:38:38.028Z,99979.44
2023-05-20T01:41:43.043Z,99974.09
2023-05-20T01:44:46.942Z,99973.66
2023-05-20T01:47:51.135Z,99972.44
2023-05-20T01:50:54.915Z,99969.50
2023-05-20T01:53:59.952Z,99971.44
2023-05-20T01:57:03.427Z,99965.09
2023-05-20T02:00:11.367Z,99975.06
2023-05-20T02:03:19.471Z,99967.91
2023-05-20T02:06:26.187Z,99972.16
2023-05-20T02:09:33.114Z,99974.28
2023-05-20T02:12:38.099Z,99976.22
2023-05-20T02:15:43.255Z,99976.78
2023-05-20T02:18:48.742Z,99976.91
2023-05-20T02:21:54.688Z,99966.47
2023-05-20T02:25:01.247Z,99970.31
2023-05-20T02:28:06.212Z,99975.13
2023-05-20T02:31:10.596Z,99975.47
2023-05-20T02:34:14.545Z,99977.72
2023-05-20T02:37:22.567Z,99979.75
2023-05-20T02:40:27.523Z,99980.78
2023-05-20T02:43:35.084Z,99984.41
2023-05-20T02:46:39.541Z,99982.19
2023-05-20T02:49:43.706Z,99985.59
2023-05-20T02:52:47.780Z,99995.75
2023-05-20T02:55:55.243Z,99987.97
2023-05-20T02:58:59.420Z,99992.75
2023-05-20T03:02:05.568Z,99989.78
2023-05-20T03:05:10.043Z,99990.19
2023-05-20T03:08:13.912Z,99996.97
2023-05-20T03:11:19.191Z,100000.75
2023-05-20T03:14:22.926Z,100002.06
2023-05-20T03:17:26.632Z,100006.19
2023-05-20T03:20:32.816Z,99993.81
2023-05-20T03:23:36.501Z,99998.31
2023-05-20T03:26:43.379Z,99997.06
2023-05-20T03:29:48.383Z,99999.53
2023-05-20T03:32:52.924Z,99996.66
2023-05-20T03:39:16.690Z,100000.78
2023-05-20T03:42:23.140Z,100000.19
2023-05-20T03:45:26.996Z,99995.81
2023-05-20T03:48:41.258Z,99992.09
2023-05-20T03:51:45.509Z,99995.78
2023-05-20T03:54:50.045Z,99996.69
2023-05-20T03:57:55.707Z,100003.31
2023-05-20T04:00:59.663Z,100005.06
2023-05-20T04:04:03.783Z,100009.25
2023-05-20T04:07:08.200Z,100016.16
2023-05-20T04:10:13.215Z,100021.66
2023-05-20T04:13:18.103Z,100023.63
2023-05-20T04:16:22.087Z,100021.19
2023-05-20T04:19:28.517Z,100022.25
2023-05-20T04:22:32.952Z,100021.09
2023-05-20T04:25:37.383Z,100028.47
2023-05-20T04:28:42.470Z,100017.28
2023-05-20T04:31:46.680Z,100015.78
2023-05-20T04:35:03.297Z,100001.88
2023-05-20T04:38:09.739Z,100001.69
2023-05-20T04:41:13.303Z,99997.06
2023-05-20T04:44:18.114Z,99998.50
2023-05-20T04:47:21.592Z,99997.72
2023-05-20T04:50:25.227Z,100006.44
2023-05-20T04:53:30.693Z,100001.00
2023-05-20T04:56:34.703Z,100009.25
2023-05-20T04:59:40.237Z,100006.72
2023-05-20T05:02:44.165Z,100009.88
2023-05-20T05:05:47.849Z,100007.56
2023-05-20T05:08:51.764Z,100013.03
2023-05-20T05:11:55.564Z,100006.69
2023-05-20T05:15:01.278Z,100008.00
2023-05-20T05:18:10.485Z,100009.13
2023-05-20T05:21:15.420Z,100008.56
2023-05-20T05:24:19.270Z,100008.94
2023-05-20T05:27:23.412Z,100019.03
2023-05-20T05:30:28.943Z,100014.19
2023-05-20T05:33:32.577Z,100015.06
2023-05-20T05:36:36.529Z,100015.31
2023-05-20T05:39:40.370Z,100023.81
2023-05-20T05:42:44.104Z,100031.78
2023-05-20T05:45:49.288Z,100029.97
2023-05-20T05:48:52.820Z,100032.97
2023-05-20T05:51:56.519Z,100029.25
2023-05-20T05:55:01.011Z,100024.66
2023-05-20T05:58:05.624Z,100025.25
2023-05-20T06:01:10.692Z,100025.78
2023-05-20T06:04:14.579Z,100023.53
2023-05-20T06:07:18.943Z,100022.94
2023-05-20T06:10:22.693Z,100021.22
2023-05-20T06:13:26.362Z,100017.41
2023-05-20T06:16:31.297Z,100010.91
2023-05-20T06:19:36.849Z,100019.31
2023-05-20T06:22:40.455Z,100015.00
2023-05-20T06:25:43.990Z,100021.50
2023-05-20T06:28:47.472Z,100013.50
2023-05-20T06:31:56.016Z,100018.84
2023-05-20T06:35:00.136Z,100014.06
2023-05-20T06:38:04.520Z,100013.72
2023-05-20T06:41:08.122Z,100009.44
2023-05-20T06:44:12.521Z,100009.56
2023-05-20T06:47:34.286Z,100013.00
2023-05-20T06:50:39.238Z,100014.66
2023-05-20T06:53:42.851Z,100025.09
2023-05-20T06:56:47.202Z,100020.09
2023-05-20T06:59:52.816Z,100007.28
2023-05-20T07:02:59.466Z,100007.16
2023-05-20T07:06:03.421Z,100014.13
2023-05-20T07:09:08.024Z,100018.75
2023-05-20T07:12:11.448Z,100022.41
2023-05-20T07:15:15.409Z,100022.59
2023-05-20T07:18:21.731Z,100024.44
2023-05-20T07:21:29.738Z,100018.88
2023-05-20T07:24:50.416Z,100015.03
2023-05-20T07:27:54.409Z,100013.72
2023-05-20T07:30:58.801Z,100002.84
2023-05-20T07:34:06.494Z,100002.97
2023-05-20T07:37:16.260Z,99994.53
2023-05-20T07:40:20.675Z,99990.44
2023-05-20T07:43:24.511Z,99997.75
2023-05-20T07:46:28.265Z,100000.16
2023-05-20T07:49:33.650Z,99994.06
2023-05-20T07:55:48.556Z,99994.75
2023-05-20T07:58:57.328Z,99995.94
2023-05-20T08:02:02.917Z,99990.25
2023-05-20T08:05:09.470Z,99997.09
2023-05-20T08:08:13.413Z,99996.16
2023-05-20T08:11:34.124Z,99998.19
2023-05-20T08:14:38.027Z,99990.13
2023-05-20T08:17:41.627Z,99989.06
2023-05-20T08:20:47.091Z,99989.41
2023-05-20T08:23:50.721Z,99993.66
2023-05-20T08:26:54.467Z,99993.34
2023-05-20T08:30:01.047Z,99991.44
2023-05-20T08:33:05.403Z,99985.78
2023-05-20T08:36:10.385Z,99979.84
2023-05-20T08:39:19.184Z,99980.72
2023-05-20T08:42:24.568Z,99981.66
2023-05-20T08:45:34.665Z,99982.00
2023-05-20T08:48:45.414Z,99978.16
2023-05-20T08:51:52.532Z,99984.69
2023-05-20T08:54:59.523Z,99974.19
2023-05-20T08:58:04.352Z,99983.81
2023-05-20T09:01:08.494Z,99977.25
2023-05-20T09:04:12.201Z,99971.91
2023-05-20T09:07:28.439Z,99973.41
2023-05-20T09:10:32.103Z,99982.47
2023-05-20T09:13:35.701Z,99977.63
2023-05-20T09:16:41.617Z,99973.38
2023-05-20T09:19:45.428Z,99978.50
2023-05-20T09:22:52.857Z,99963.88
2023-05-20T09:25:56.441Z,99971.19
2023-05-20T09:29:00.953Z,99961.09
2023-05-20T09:32:06.385Z,99967.50
2023-05-20T09:35:16.824Z,99960.09
2023-05-20T09:38:23.020Z,99953.84
2023-05-20T09:41:35.659Z,99956.41
2023-05-20T09:44:41.353Z,99955.09
2023-05-20T09:47:46.454Z,99953.44
2023-05-20T09:50:52.397Z,99945.00
2023-05-20T09:53:58.499Z,99951.50
2023-05-20T09:57:02.242Z,99942.22
2023-05-20T10:00:08.688Z,99932.50
2023-05-20T10:03:21.252Z,99919.41
2023-05-20T10:06:43.450Z,99921.31
2023-05-20T10:10:03.918Z,99920.81
2023-05-20T10:13:23.158Z,99925.00
2023-05-20T10:16:39.758Z,99932.88
2023-05-20T10:19:46.418Z,99937.22
2023-05-20T10:22:58.562Z,99933.16
2023-05-20T10:26:08.326Z,99935.75
2023-05-20T10:29:22.886Z,99935.13
2023-05-20T10:32:27.861Z,99925.44
2023-05-20T10:35:32.382Z,99919.63
2023-05-20T10:38:36.165Z,99909.41
2023-05-20T10:41:41.555Z,99912.88
2023-05-20T10:44:46.134Z,99913.78
2023-05-20T10:47:57.003Z,99914.13
2023-05-20T10:51:04.329Z,99905.38
2023-05-20T10:54:13.102Z,99908.31
2023-05-20T10:57:20.418Z,99889.22
2023-05-20T11:00:24.659Z,99888.78
2023-05-20T11:03:28.712Z,99885.09
2023-05-20T11:06:34.062Z,99880.13
2023-05-20T11:09:37.940Z,99877.84
2023-05-20T11:12:43.354Z,99876.00
2023-05-20T11:15:47.266Z,99873.88
2023-05-20T11:18:51.913Z,99869.31
2023-05-20T11:22:00.110Z,99863.50
2023-05-20T11:25:07.645Z,99868.47
2023-05-20T11:28:14.702Z,99855.50
2023-05-20T11:31:19.624Z,99852.28
2023-05-20T11:34:26.893Z,99855.03
2023-05-20T11:37:31.573Z,99854.38
2023-05-20T11:40:46.364Z,99850.25
2023-05-20T11:43:59.453Z,99850.25
2023-05-20T11:47:04.481Z,99841.63
2023-05-20T11:50:11.754Z,99839.31
2023-05-20T11:53:18.249Z,99847.00
2023-05-20T11:56:22.894Z,99848.38
2023-05-20T11:59:29.387Z,99841.75
2023-05-20T12:02:33.595Z,99835.47
2023-05-20T12:05:37.309Z,99838.03
2023-05-20T12:08:41.011Z,99839.16
2023-05-20T12:11:45.486Z,99833.19
2023-05-20T12:14:52.934Z,99832.09
2023-05-20T12:18:02.881Z,99832.59
2023-05-20T12:21:07.218Z,99826.97
2023-05-20T12:24:11.283Z,99824.03
2023-05-20T12:27:15.454Z,99819.63
2023-05-20T12:30:22.286Z,99836.59
2023-05-20T12:33:27.828Z,99820.25
2023-05-20T12:36:31.898Z,99817.00
2023-05-20T12:39:35.597Z,99813.63
2023-05-20T12:42:40.416Z,99811.75
2023-05-20T12:45:45.926Z,99804.47
2023-05-20T12:48:49.973Z,99799.47
2023-05-20T12:51:54.082Z,99803.22
2023-05-20T12:54:58.545Z,99794.13
2023-05-20T12:58:02.269Z,99792.75
2023-05-20T13:01:07.377Z,99796.28
2023-05-20T13:04:10.929Z,99781.50
2023-05-20T13:07:15.390Z,99786.81
2023-05-20T13:10:19.983Z,99788.78
2023-05-20T13:13:24.350Z,99783.56
2023-05-20T13:16:29.494Z,99779.84
2023-05-20T13:19:34.031Z,99778.41
2023-05-20T13:22:39.315Z,99777.00
2023-05-20T13:25:44.411Z,99775.13
2023-05-20T13:28:48.117Z,99767.00
2023-05-20T13:31:53.232Z,99774.09
2023-05-20T13:34:57.125Z,99772.41
2023-05-20T13:38:00.655Z,99772.50
2023-05-20T13:41:04.499Z,99771.88
2023-05-20T13:44:08.118Z,99759.72
2023-05-20T13:47:13.148Z,99772.91
2023-05-20T13:50:16.810Z,99760.38
2023-05-20T13:53:21.006Z,99772.38
2023-05-20T13:56:28.731Z,99756.81
2023-05-20T13:59:32.998Z,99752.69
2023-05-20T14:02:38.438Z,99746.97
2023-05-20T14:05:43.331Z,99737.66
2023-05-20T14:08:46.810Z,99738.97
2023-05-20T14:11:52.908Z,99745.47
2023-05-20T14:14:56.521Z,99729.88
2023-05-20T14:18:01.816Z,99740.00
2023-05-20T14:21:05.826Z,99733.28
2023-05-20T14:24:09.740Z,99719.59
2023-05-20T14:27:15.371Z,99722.88
2023-05-20T14:30:19.034Z,99718.78
2023-05-20T14:33:24.353Z,99722.88
2023-05-20T14:36:28.974Z,99703.56
2023-05-20T14:39:32.901Z,99703.97
2023-05-20T14:42:37.018Z,99700.06
2023-05-20T14:45:40.904Z,99694.28
2023-05-20T14:48:46.162Z,99694.19
2023-05-20T14:51:50.130Z,99697.69
2023-05-20T14:54:56.876Z,99693.25
2023-05-20T14:58:00.834Z,99692.41
2023-05-20T15:01:07.504Z,99698.16
2023-05-20T15:04:13.392Z,99699.03
2023-05-20T15:07:17.448Z,99694.78
2023-05-20T15:10:21.892Z,99684.47
2023-05-20T15:13:25.530Z,99687.38
2023-05-20T15:16:30.392Z,99673.88
2023-05-20T15:19:37.897Z,99675.06
2023-05-20T15:22:44.340Z,99678.41
2023-05-20T15:25:48.874Z,99668.16
2023-05-20T15:28:52.907Z,99667.56
2023-05-20T15:31:56.427Z,99654.41
2023-05-20T15:35:02.946Z,99652.94
2023-05-20T15:38:06.836Z,99652.06
2023-05-20T15:41:12.611Z,99644.47
2023-05-20T15:44:16.609Z,99647.66
2023-05-20T15:47:20.459Z,99646.66
2023-05-20T15:50:26.300Z,99643.38
2023-05-20T15:53:30.052Z,99637.63
2023-05-20T15:56:33.875Z,99637.06
2023-05-20T15:59:39.851Z,99630.78
2023-05-20T16:02:44.623Z,99638.63
2023-05-20T16:05:50.196Z,99628.84
2023-05-20T16:08:53.850Z,99632.69
2023-05-20T16:11:57.761Z,99621.88
2023-05-20T16:15:01.972Z,99617.63
2023-05-20T16:18:06.098Z,99624.78
2023-05-20T16:21:11.587Z,99621.41
2023-05-20T16:24:16.190Z,99631.06
2023-05-20T16:27:22.388Z,99629.75
2023-05-20T16:30:25.966Z,99623.97
2023-05-20T16:33:29.815Z,99625.13
2023-05-20T16:36:35.090Z,99616.16
2023-05-20T16:39:38.734Z,99624.63
2023-05-20T16:42:44.114Z,99618.88
2023-05-20T16:45:47.926Z,99617.19
2023-05-20T16:48:51.993Z,99614.25
2023-05-20T16:52:00.196Z,99617.09
2023-05-20T16:55:08.686Z,99615.06
2023-05-20T16:58:12.530Z,99618.97
2023-05-20T17:01:16.452Z,99614.75
2023-05-20T17:04:21.021Z,99612.47
2023-05-20T17:07:26.092Z,99609.34
2023-05-20T17:10:29.784Z,99616.34
2023-05-20T17:13:33.287Z,99612.94
2023-05-20T17:16:37.030Z,99607.78
2023-05-20T17:19:41.592Z,99601.75
2023-05-20T17:22:46.694Z,99613.56
2023-05-20T17:25:50.193Z,99611.34
2023-05-20T17:28:54.143Z,99609.09
2023-05-20T17:31:57.616Z,99609.41
2023-05-20T17:35:03.371Z,99607.31
2023-05-20T17:38:08.885Z,99616.44
2023-05-20T17:41:13.074Z,99613.75
2023-05-20T17:44:20.256Z,99608.81
2023-05-20T17:47:23.955Z,99608.03
2023-05-20T17:50:27.509Z,99608.03
2023-05-20T17:53:32.590Z,99609.75
2023-05-20T17:56:37.456Z,99612.44
2023-05-20T17:59:42.116Z,99608.81
2023-05-20T18:02:48.351Z,99610.66
2023-05-20T18:05:53.264Z,99613.56
2023-05-20T18:09:00.230Z,99613.88
2023-05-20T18:12:03.722Z,99609.41
2023-05-20T18:15:08.493Z,99606.09
2023-05-20T18:18:12.487Z,99606.84
2023-05-20T18:21:16.097Z,99604.94
2023-05-20T18:24:21.563Z,99614.84
2023-05-20T18:27:25.016Z,99618.34
2023-05-20T18:30:28.878Z,99615.97
2023-05-20T18:33:32.669Z,99615.75
2023-05-20T18:36:37.488Z,99618.75
2023-05-20T18:39:42.655Z,99622.44
2023-05-20T18:42:46.940Z,99624.59
2023-05-20T18:45:50.763Z,99628.31
2023-05-20T18:48:55.764Z,99630.16
2023-05-20T18:52:01.485Z,99627.44
2023-05-20T18:55:07.714Z,99621.63
2023-05-20T18:58:11.442Z,99629.81
2023-05-20T19:01:22.536Z,99627.91
2023-05-20T19:04:26.571Z,99625.81
2023-05-20T19:07:32.725Z,99627.94
2023-05-20T19:10:38.120Z,99632.47
2023-05-20T19:13:47.166Z,99629.78
2023-05-20T19:16:50.919Z,99629.56
2023-05-20T19:19:54.530Z,99624.44
2023-05-20T19:22:58.343Z,99624.41
2023-05-20T19:26:03.433Z,99629.44
2023-05-20T19:29:07.815Z,99626.50
2023-05-20T19:32:11.454Z,99625.41
2023-05-20T19:35:18.787Z,99622.84
2023-05-20T19:38:22.704Z,99626.25
2023-05-20T19:41:27.619Z,99624.19
2023-05-20T19:44:31.170Z,99633.56
2023-05-20T19:47:35.901Z,99632.22
2023-05-20T19:50:39.630Z,99623.31
2023-05-20T19:53:43.399Z,99619.00
2023-05-20T19:56:48.532Z,99632.41
2023-05-20T19:59:53.628Z,99634.47
2023-05-20T20:02:58.377Z,99625.47
2023-05-20T20:06:02.684Z,99635.50
2023-05-20T20:09:06.468Z,99645.28
2023-05-20T20:12:11.842Z,99647.06
2023-05-20T20:15:16.456Z,99651.44
2023-05-20T20:18:19.932Z,99646.59
2023-05-20T20:21:25.999Z,99647.19
2023-05-20T20:24:29.471Z,99649.31
2023-05-20T20:27:34.436Z,99644.28
2023-05-20T20:30:38.832Z,99642.00
2023-05-20T20:33:42.628Z,99637.31
2023-05-20T20:36:47.354Z,99638.31
2023-05-20T20:39:51.312Z,99643.25
2023-05-20T20:42:58.619Z,99640.28
2023-05-20T20:46:02.695Z,99640.91
2023-05-20T20:49:06.255Z,99646.63
2023-05-20T20:52:11.067Z,99643.22
2023-05-20T20:55:15.303Z,99639.66
2023-05-20T20:58:20.716Z,99645.16
2023-05-20T21:01:25.706Z,99644.00
2023-05-20T21:04:29.584Z,99636.44
2023-05-20T21:07:33.576Z,99636.25
2023-05-20T21:10:38.405Z,99635.19
2023-05-20T21:13:43.621Z,99632.03
2023-05-20T21:16:47.367Z,99625.25
2023-05-20T21:19:51.088Z,99624.59
2023-05-20T21:22:55.028Z,99624.13
2023-05-20T21:25:59.004Z,99629.50
2023-05-20T21:29:04.423Z,99628.09
2023-05-20T21:32:08.719Z,99630.63
2023-05-20T21:35:13.596Z,99635.84
2023-05-20T21:38:21.320Z,99631.16
2023-05-20T21:41:27.487Z,99628.72
2023-05-20T21:44:32.928Z,99629.16
2023-05-20T21:47:36.761Z,99625.88
2023-05-20T21:50:40.324Z,99630.47
2023-05-20T21:53:45.188Z,99631.13
2023-05-20T21:56:49.115Z,99631.88
2023-05-20T21:59:54.615Z,99628.50
2023-05-20T22:02:58.458Z,99623.97
2023-05-20T22:06:03.599Z,99624.97
2023-05-20T22:09:07.157Z,99630.69
2023-05-20T22:12:11.507Z,99629.44
2023-05-20T22:15:17.221Z,99628.00
2023-05-20T22:18:22.634Z,99627.00
2023-05-20T22:21:26.558Z,99628.09
2023-05-20T22:24:30.611Z,99624.84
2023-05-20T22:27:35.206Z,99625.56
2023-05-20T22:30:40.350Z,99616.66
2023-05-20T22:33:43.872Z,99613.84
2023-05-20T22:36:49.225Z,99620.91
2023-05-20T22:39:52.946Z,99622.97
2023-05-20T22:42:56.963Z,99623.84
2023-05-20T22:46:02.373Z,99627.03
2023-05-20T22:49:06.413Z,99621.19
2023-05-20T22:52:11.846Z,99631.56
2023-05-20T22:55:16.192Z,99624.13
2023-05-20T22:58:20.277Z,99616.22
2023-05-20T23:01:25.512Z,99621.44
2023-05-20T23:04:32.572Z,99617.78
2023-05-20T23:07:37.821Z,99614.88
2023-05-20T23:10:41.618Z,99614.88
2023-05-20T23:13:45.200Z,99618.63
2023-05-20T23:16:51.321Z,99613.78
2023-05-20T23:19:54.868Z,99618.88
2023-05-20T23:23:00.141Z,99616.56
2023-05-20T23:26:08.066Z,99609.75
2023-05-20T23:29:11.620Z,99610.97
2023-05-20T23:32:17.305Z,99610.22
2023-05-20T23:35:21.185Z,99614.25
2023-05-20T23:38:24.610Z,99615.38
2023-05-20T23:41:27.998Z,99618.50
2023-05-20T23:44:31.369Z,99614.75
2023-05-20T23:47:36.623Z,99611.47
2023-05-20T23:50:40.750Z,99617.75
2023-05-20T23:53:45.331Z,99618.91
2023-05-20T23:56:49.149Z,99614.88
2023-05-20T23:59:52.896Z,99603.91
